TimeEDT,TemperatureF,Dew PointF,Humidity,Sea Level PressureIn,VisibilityMPH,Wind Direction,Wind SpeedMPH,Gust SpeedMPH,PrecipitationIn,Events,Conditions,WindDirDegrees,DateUTC
12:15 AM,-9999,-9999,N/A,-9999,-9999.0,North,-9999.0,-,N/A,,Unknown,0,2013-07-28 04:15:00
12:35 AM,-9999,-9999,N/A,-9999,-9999.0,North,-9999.0,-,N/A,,Unknown,0,2013-07-28 04:35:00
12:55 AM,-9999,-9999,N/A,-9999,-9999.0,North,-9999.0,-,N/A,,Unknown,0,2013-07-28 04:55:00
1:15 AM,-9999,-9999,N/A,-9999,-9999.0,North,-9999.0,-,N/A,,Unknown,0,2013-07-28 05:15:00
1:35 AM,-9999,-9999,N/A,-9999,-9999.0,North,-9999.0,-,N/A,,Unknown,0,2013-07-28 05:35:00
1:55 AM,-9999,-9999,N/A,-9999,-9999.0,North,-9999.0,-,N/A,,Unknown,0,2013-07-28 05:55:00
2:15 AM,-9999,-9999,N/A,-9999,-9999.0,North,-9999.0,-,N/A,,Unknown,0,2013-07-28 06:15:00
2:35 AM,-9999,-9999,N/A,-9999,-9999.0,North,-9999.0,-,N/A,,Unknown,0,2013-07-28 06:35:00
2:55 AM,-9999,-9999,N/A,-9999,-9999.0,North,-9999.0,-,N/A,,Unknown,0,2013-07-28 06:55:00
3:15 AM,-9999,-9999,N/A,-9999,-9999.0,North,-9999.0,-,N/A,,Unknown,0,2013-07-28 07:15:00
3:35 AM,-9999,-9999,N/A,-9999,-9999.0,North,-9999.0,-,N/A,,Unknown,0,2013-07-28 07:35:00
3:55 AM,-9999,-9999,N/A,-9999,-9999.0,North,-9999.0,-,N/A,,Unknown,0,2013-07-28 07:55:00
4:15 AM,-9999,-9999,N/A,-9999,-9999.0,North,-9999.0,-,N/A,,Unknown,0,2013-07-28 08:15:00
4:35 AM,-9999,-9999,N/A,-9999,-9999.0,North,-9999.0,-,N/A,,Unknown,0,2013-07-28 08:35:00
4:55 AM,-9999,-9999,N/A,-9999,-9999.0,North,-9999.0,-,N/A,,Unknown,0,2013-07-28 08:55:00
5:15 AM,-9999,-9999,N/A,-9999,-9999.0,North,-9999.0,-,N/A,,Unknown,0,2013-07-28 09:15:00
5:35 AM,-9999,-9999,N/A,-9999,-9999.0,North,-9999.0,-,N/A,,Unknown,0,2013-07-28 09:35:00
5:55 AM,-9999,-9999,N/A,-9999,-9999.0,North,-9999.0,-,N/A,,Unknown,0,2013-07-28 09:55:00
6:15 AM,-9999,-9999,N/A,-9999,-9999.0,North,-9999.0,-,N/A,,Unknown,0,2013-07-28 10:15:00
6:47 AM,75.2,69.8,83,30.00,7.0,SE,9.2,-,N/A,,Scattered Clouds,140,2013-07-28 10:47:00
7:47 AM,80.6,71.6,74,30.02,7.0,Calm,Calm,-,N/A,,Scattered Clouds,0,2013-07-28 11:47:00
8:47 AM,86.0,77.0,74,30.02,7.0,Calm,Calm,-,N/A,,Scattered Clouds,0,2013-07-28 12:47:00
9:47 AM,86.0,75.2,70,30.03,7.0,Calm,Calm,-,N/A,,Mostly Cloudy,0,2013-07-28 13:47:00
10:47 AM,89.6,73.4,59,30.04,7.0,Calm,Calm,-,N/A,,Mostly Cloudy,0,2013-07-28 14:47:00
11:47 AM,82.4,77.0,84,30.04,7.0,East,11.5,-,N/A,,Mostly Cloudy,90,2013-07-28 15:47:00
12:10 PM,-9999,-9999,N/A,30.06,1.0,North,-9999.0,-,N/A,Rain-Thunderstorm,Heavy Thunderstorms and Rain,0,2013-07-28 16:10:00
12:47 PM,77.0,75.2,94,30.08,3.0,South,5.8,-,N/A,Rain-Thunderstorm,Thunderstorms and Rain,180,2013-07-28 16:47:00
1:10 PM,77.0,75.2,94,30.09,2.0,Variable,5.8,-,N/A,Rain-Thunderstorm,Thunderstorms and Rain,0,2013-07-28 17:10:00
1:47 PM,78.8,69.8,74,30.07,4.0,Variable,5.8,-,N/A,Rain-Thunderstorm,Light Thunderstorms and Rain,0,2013-07-28 17:47:00
2:47 PM,78.8,71.6,78,30.06,5.0,SE,5.8,-,N/A,Rain,Light Rain,140,2013-07-28 18:47:00
3:47 PM,82.4,73.4,74,30.04,6.0,SE,6.9,-,N/A,Rain,Light Rain,130,2013-07-28 19:47:00
4:47 PM,82.4,73.4,74,30.03,7.0,SE,6.9,-,N/A,,Mostly Cloudy,130,2013-07-28 20:47:00
5:47 PM,84.2,73.4,70,30.02,7.0,SE,5.8,-,N/A,,Mostly Cloudy,130,2013-07-28 21:47:00
6:47 PM,82.4,71.6,70,30.04,7.0,SE,6.9,-,N/A,,Mostly Cloudy,140,2013-07-28 22:47:00
8:15 PM,-9999,-9999,N/A,-9999,-9999.0,North,-9999.0,-,N/A,,Unknown,0,2013-07-29 00:15:00
8:35 PM,-9999,-9999,N/A,-9999,-9999.0,North,-9999.0,-,N/A,,Unknown,0,2013-07-29 00:35:00
8:55 PM,-9999,-9999,N/A,-9999,-9999.0,North,-9999.0,-,N/A,,Unknown,0,2013-07-29 00:55:00
9:15 PM,-9999,-9999,N/A,-9999,-9999.0,North,-9999.0,-,N/A,,Unknown,0,2013-07-29 01:15:00
9:35 PM,-9999,-9999,N/A,-9999,-9999.0,North,-9999.0,-,N/A,,Unknown,0,2013-07-29 01:35:00
9:55 PM,-9999,-9999,N/A,-9999,-9999.0,North,-9999.0,-,N/A,,Unknown,0,2013-07-29 01:55:00
10:15 PM,-9999,-9999,N/A,-9999,-9999.0,North,-9999.0,-,N/A,,Unknown,0,2013-07-29 02:15:00
10:35 PM,-9999,-9999,N/A,-9999,-9999.0,North,-9999.0,-,N/A,,Unknown,0,2013-07-29 02:35:00
10:55 PM,-9999,-9999,N/A,-9999,-9999.0,North,-9999.0,-,N/A,,Unknown,0,2013-07-29 02:55:00
11:15 PM,-9999,-9999,N/A,-9999,-9999.0,North,-9999.0,-,N/A,,Unknown,0,2013-07-29 03:15:00
11:35 PM,-9999,-9999,N/A,-9999,-9999.0,North,-9999.0,-,N/A,,Unknown,0,2013-07-29 03:35:00
11:55 PM,-9999,-9999,N/A,-9999,-9999.0,North,-9999.0,-,N/A,,Unknown,0,2013-07-29 03:55:00